Terminal Aerodrome Forecast
Issued by NWS Shreveport, LA

Home | Current Version | Previous Version | Text Only | Print | Product List | Glossary On
Versions: 1 2 3 4 5 6 7 8 9 10 11 12 13 14
000
FTUS44 KSHV 061147
TAFELD
TAF
KELD 061147Z 0612/0712 14004KT P6SM BKN100 BKN250
     FM061600 15008KT P6SM SCT035 BKN080 BKN250
     FM061800 14009KT P6SM SCT040 SCT100 BKN250
     FM070000 13005KT P6SM FEW060 SCT100 BKN250
      TEMPO 0710/0712 5SM BR=

USA.gov is the U.S. government's official web portal to all federal, state and local government web resources and services.